Time;durP1;ratioP1;P1;durP2;ratioP2;P2;SDS_P1;SDS_P2;PMS_P1;PMS_P2;Temp;Humidity;BMP_temperature;BMP_pressure;BME280_temperature;BME280_humidity;BME280_pressure;Samples;Min_cycle;Max_cycle;Signal;HPM_P1;HPM_P2
2021/01/16 00:00:39;;;;;;;;;;;2.90;92.80;;;;;;5014817;28;19909;-86
2021/01/16 00:03:09;;;;;;;;;;;2.90;92.70;;;;;;5005408;28;20298;-86
2021/01/16 00:05:34;;;;;;;;;;;2.90;92.80;;;;;;5030391;28;19916;-86
2021/01/16 00:08:07;;;;;;;;;;;2.90;92.90;;;;;;5017365;28;19921;-86
2021/01/16 00:10:34;;;;;;;;;;;3.00;92.90;;;;;;5050191;28;19919;-86
2021/01/16 00:13:00;;;;;;;;;;;3.00;92.90;;;;;;5033630;28;19972;-86
2021/01/16 00:15:26;;;;;;;;;;;3.00;92.70;;;;;;5017449;28;19919;-86
2021/01/16 00:17:58;;;;;;;;;;;2.90;92.70;;;;;;5030710;28;19921;-86
2021/01/16 00:20:24;;;;;;;;;;;2.90;92.60;;;;;;5033237;28;19909;-86
2021/01/16 00:22:50;;;;;;;;;;;2.90;92.60;;;;;;5051282;28;19955;-86
2021/01/16 00:25:16;;;;;;;;;;;2.90;92.70;;;;;;5016728;28;19916;-86
2021/01/16 00:27:42;;;;;;;;;;;2.90;92.50;;;;;;5033749;28;19917;-88
2021/01/16 00:30:08;;;;;;;;;;;2.80;92.50;;;;;;5033726;28;19917;-86
2021/01/16 00:32:34;;;;;;;;;;;2.80;92.30;;;;;;5051348;28;19908;-86
2021/01/16 00:35:00;;;;;;;;;;;2.80;92.40;;;;;;5051718;28;19940;-86
2021/01/16 00:37:26;;;;;;;;;;;2.80;92.50;;;;;;5033171;28;20442;-86
2021/01/16 00:39:51;;;;;;;;;;;2.80;92.70;;;;;;5037398;28;20375;-87
2021/01/16 00:42:17;;;;;;;;;;;2.80;92.80;;;;;;5033963;28;20371;-84
2021/01/16 00:44:42;;;;;;;;;;;2.90;92.80;;;;;;5049514;28;19912;-83
2021/01/16 00:47:08;;;;;;;;;;;2.90;92.90;;;;;;5037378;28;20376;-84
2021/01/16 00:49:33;;;;;;;;;;;2.90;92.80;;;;;;5020989;28;19917;-85
2021/01/16 00:51:59;;;;;;;;;;;2.90;92.60;;;;;;5034449;28;19917;-84
2021/01/16 00:54:24;;;;;;;;;;;2.90;92.70;;;;;;5031200;28;20321;-85
2021/01/16 00:56:51;;;;;;;;;;;2.90;92.80;;;;;;5055452;28;19913;-84
2021/01/16 00:59:16;;;;;;;;;;;2.90;92.80;;;;;;5036988;28;19913;-85
2021/01/16 01:01:42;;;;;;;;;;;2.90;92.80;;;;;;5022765;28;19939;-84
2021/01/16 01:04:08;;;;;;;;;;;2.90;92.70;;;;;;5032136;28;19972;-84
2021/01/16 01:06:33;;;;;;;;;;;2.90;92.60;;;;;;5054082;28;20259;-85
2021/01/16 01:08:59;;;;;;;;;;;2.90;92.50;;;;;;5020900;28;19966;-85
2021/01/16 01:11:25;;;;;;;;;;;2.90;92.60;;;;;;5008341;28;19918;-85
2021/01/16 01:13:50;;;;;;;;;;;2.90;92.50;;;;;;5042854;28;19970;-85
2021/01/16 01:16:16;;;;;;;;;;;2.80;92.20;;;;;;5035731;28;20011;-86
2021/01/16 01:18:41;;;;;;;;;;;2.80;92.20;;;;;;5016143;28;19962;-85
2021/01/16 01:21:06;;;;;;;;;;;2.80;92.50;;;;;;5036832;28;20011;-85
2021/01/16 01:23:32;;;;;;;;;;;2.80;92.60;;;;;;5019905;28;20285;-85
2021/01/16 01:25:57;;;;;;;;;;;2.90;92.70;;;;;;5037219;28;19980;-85
2021/01/16 01:28:23;;;;;;;;;;;2.80;92.50;;;;;;5054163;28;19921;-85
2021/01/16 01:30:48;;;;;;;;;;;2.90;92.50;;;;;;5020217;28;19913;-86
2021/01/16 01:33:15;;;;;;;;;;;2.80;92.20;;;;;;5036764;28;19909;-85
2021/01/16 01:35:40;;;;;;;;;;;2.80;92.00;;;;;;5054108;28;19913;-85
2021/01/16 01:38:06;;;;;;;;;;;2.80;91.10;;;;;;5054583;28;19962;-85
2021/01/16 01:40:31;;;;;;;;;;;2.70;91.00;;;;;;5028125;28;19920;-85
2021/01/16 01:42:57;;;;;;;;;;;2.60;91.00;;;;;;5011966;28;19919;-85
2021/01/16 01:45:23;;;;;;;;;;;2.60;91.10;;;;;;5022494;28;20359;-86
2021/01/16 01:47:49;;;;;;;;;;;2.60;90.80;;;;;;5036535;28;19956;-86
2021/01/16 01:50:15;;;;;;;;;;;2.50;90.30;;;;;;5037018;28;19952;-85
2021/01/16 01:52:41;;;;;;;;;;;2.60;90.50;;;;;;5020610;28;19984;-85
2021/01/16 01:55:08;;;;;;;;;;;2.50;90.60;;;;;;5037480;28;19917;-85
2021/01/16 01:57:36;;;;;;;;;;;2.50;90.70;;;;;;5031435;28;19910;-85
2021/01/16 02:00:04;;;;;;;;;;;2.50;91.00;;;;;;5047403;28;19913;-85
2021/01/16 02:02:31;;;;;;;;;;;2.60;91.20;;;;;;5035776;28;19982;-86
2021/01/16 02:04:58;;;;;;;;;;;2.60;91.00;;;;;;5053882;28;19929;-84
2021/01/16 02:07:27;;;;;;;;;;;2.60;90.50;;;;;;5040758;28;19925;-85
2021/01/16 02:09:53;;;;;;;;;;;2.60;90.40;;;;;;5054657;28;20393;-86
2021/01/16 02:12:19;;;;;;;;;;;2.60;90.80;;;;;;5020559;28;19913;-85
2021/01/16 02:15:02;;;;;;;;;;;2.60;90.50;;;;;;5054482;28;19913;-84
2021/01/16 02:17:29;;;;;;;;;;;2.60;90.20;;;;;;5036339;28;19913;-85
2021/01/16 02:19:58;;;;;;;;;;;2.60;90.00;;;;;;5036475;28;20370;-85
2021/01/16 02:22:30;;;;;;;;;;;2.60;90.00;;;;;;5035684;28;19916;-85
2021/01/16 02:25:14;;;;;;;;;;;2.60;90.40;;;;;;5053893;28;19940;-85
2021/01/16 02:27:40;;;;;;;;;;;2.60;90.10;;;;;;5049601;28;19917;-86
2021/01/16 02:30:06;;;;;;;;;;;2.60;90.50;;;;;;5035498;28;19909;-85
2021/01/16 02:32:34;;;;;;;;;;;2.60;90.50;;;;;;5035548;28;19947;-85
2021/01/16 02:35:01;;;;;;;;;;;2.70;90.70;;;;;;5035389;28;19916;-85
2021/01/16 02:37:34;;;;;;;;;;;2.70;90.90;;;;;;5043081;28;19916;-87
2021/01/16 02:40:02;;;;;;;;;;;2.80;91.00;;;;;;5035769;28;19920;-85
2021/01/16 02:42:43;;;;;;;;;;;2.70;90.50;;;;;;5033125;28;20374;-85
2021/01/16 02:45:13;;;;;;;;;;;2.80;90.60;;;;;;5033544;28;19913;-84
2021/01/16 02:47:39;;;;;;;;;;;2.80;90.30;;;;;;5027181;28;20401;-84
2021/01/16 02:50:06;;;;;;;;;;;2.70;90.10;;;;;;5048732;28;19909;-85
2021/01/16 02:52:34;;;;;;;;;;;2.70;89.90;;;;;;5049106;28;19909;-85
2021/01/16 02:55:01;;;;;;;;;;;2.70;90.10;;;;;;5035643;28;19913;-85
2021/01/16 02:57:26;;;;;;;;;;;2.60;90.10;;;;;;5035855;28;19999;-85
2021/01/16 02:59:52;;;;;;;;;;;2.60;90.20;;;;;;5016221;28;20007;-85
2021/01/16 03:02:18;;;;;;;;;;;2.60;90.30;;;;;;5029556;28;20274;-85
2021/01/16 03:04:44;;;;;;;;;;;2.60;90.20;;;;;;5004762;28;20379;-84
2021/01/16 03:07:11;;;;;;;;;;;2.60;90.30;;;;;;5028739;28;20357;-84
2021/01/16 03:09:37;;;;;;;;;;;2.60;90.50;;;;;;5035620;28;19909;-85
2021/01/16 03:12:02;;;;;;;;;;;2.60;90.60;;;;;;5015658;28;19967;-84
2021/01/16 03:14:33;;;;;;;;;;;2.60;90.30;;;;;;5047683;28;19916;-84
2021/01/16 03:17:05;;;;;;;;;;;2.60;90.40;;;;;;5016241;28;19967;-85
2021/01/16 03:19:31;;;;;;;;;;;2.60;90.30;;;;;;5030027;28;20394;-85
2021/01/16 03:21:57;;;;;;;;;;;2.60;90.30;;;;;;5033361;28;20267;-85
2021/01/16 03:24:22;;;;;;;;;;;2.60;90.60;;;;;;5019027;28;19966;-85
2021/01/16 03:26:48;;;;;;;;;;;2.60;90.70;;;;;;5015419;28;19971;-85
2021/01/16 03:29:13;;;;;;;;;;;2.60;90.40;;;;;;5029997;28;19923;-85
2021/01/16 03:31:39;;;;;;;;;;;2.60;90.60;;;;;;5034997;28;19919;-84
2021/01/16 03:34:04;;;;;;;;;;;2.60;90.60;;;;;;5051092;28;19913;-85
2021/01/16 03:36:30;;;;;;;;;;;2.70;90.90;;;;;;5016902;28;20366;-85
2021/01/16 03:38:56;;;;;;;;;;;2.70;91.00;;;;;;5022799;28;19918;-84
2021/01/16 03:41:21;;;;;;;;;;;2.80;91.10;;;;;;5047068;28;19912;-85
2021/01/16 03:43:47;;;;;;;;;;;2.80;91.20;;;;;;5049420;28;19909;-85
2021/01/16 03:46:12;;;;;;;;;;;2.80;91.00;;;;;;5019195;28;19943;-85
2021/01/16 03:48:39;;;;;;;;;;;2.70;90.90;;;;;;5029747;28;19921;-85
2021/01/16 03:51:05;;;;;;;;;;;2.70;90.60;;;;;;5008813;28;19924;-84
2021/01/16 03:53:30;;;;;;;;;;;2.70;90.60;;;;;;5018195;28;19913;-86
2021/01/16 03:55:56;;;;;;;;;;;2.70;91.10;;;;;;5035049;28;20357;-85
2021/01/16 03:58:21;;;;;;;;;;;2.70;91.00;;;;;;5016620;28;20271;-84
2021/01/16 04:00:47;;;;;;;;;;;2.70;91.00;;;;;;5034917;28;19921;-84
2021/01/16 04:03:12;;;;;;;;;;;2.70;90.90;;;;;;5031723;28;19931;-85
2021/01/16 04:05:38;;;;;;;;;;;2.70;90.90;;;;;;5031502;28;19913;-85
2021/01/16 04:08:03;;;;;;;;;;;2.70;90.90;;;;;;5033175;28;20264;-85
2021/01/16 04:10:29;;;;;;;;;;;2.70;90.90;;;;;;5012611;28;19913;-86
2021/01/16 04:12:54;;;;;;;;;;;2.80;91.10;;;;;;5004566;28;20328;-84
2021/01/16 04:15:20;;;;;;;;;;;2.80;91.20;;;;;;4995896;28;19914;-85
2021/01/16 04:17:45;;;;;;;;;;;2.80;91.20;;;;;;5007759;28;19914;-85
2021/01/16 04:20:11;;;;;;;;;;;2.80;91.20;;;;;;4994777;28;19917;-85
2021/01/16 04:22:37;;;;;;;;;;;2.80;91.10;;;;;;4995924;28;20290;-85
2021/01/16 04:25:03;;;;;;;;;;;2.80;91.20;;;;;;5013985;28;20038;-84
2021/01/16 04:27:29;;;;;;;;;;;2.80;90.50;;;;;;5013608;28;19936;-84
2021/01/16 04:29:55;;;;;;;;;;;2.70;90.60;;;;;;4997840;28;20343;-85
2021/01/16 04:32:21;;;;;;;;;;;2.70;90.60;;;;;;4997674;28;19913;-85
2021/01/16 04:34:46;;;;;;;;;;;2.70;90.90;;;;;;5031270;28;20008;-86
2021/01/16 04:37:12;;;;;;;;;;;2.70;90.90;;;;;;5031595;28;19921;-84
2021/01/16 04:39:37;;;;;;;;;;;2.80;91.10;;;;;;5030802;28;19916;-85
2021/01/16 04:42:03;;;;;;;;;;;2.80;91.10;;;;;;5014955;28;19919;-85
2021/01/16 04:44:32;;;;;;;;;;;2.80;91.20;;;;;;5014908;28;20266;-84
2021/01/16 04:46:58;;;;;;;;;;;2.80;91.30;;;;;;5009389;28;19964;-85
2021/01/16 04:49:24;;;;;;;;;;;2.80;91.30;;;;;;5006619;28;19909;-85
2021/01/16 04:51:52;;;;;;;;;;;2.90;91.40;;;;;;5014485;28;19909;-85
2021/01/16 04:54:18;;;;;;;;;;;2.90;90.90;;;;;;5014694;28;19913;-85
2021/01/16 04:56:46;;;;;;;;;;;2.80;91.30;;;;;;5012347;28;19919;-85
2021/01/16 04:59:11;;;;;;;;;;;2.90;91.30;;;;;;5003558;28;19913;-85
2021/01/16 05:01:37;;;;;;;;;;;2.90;91.40;;;;;;4994662;28;19922;-85
2021/01/16 05:04:02;;;;;;;;;;;2.90;91.30;;;;;;5034333;28;19932;-85
2021/01/16 05:06:29;;;;;;;;;;;2.80;91.30;;;;;;5034082;28;20369;-85
2021/01/16 05:08:55;;;;;;;;;;;2.90;91.40;;;;;;5017195;28;19920;-85
2021/01/16 05:11:24;;;;;;;;;;;2.90;91.50;;;;;;5024591;28;19963;-85
2021/01/16 05:14:09;;;;;;;;;;;2.90;91.40;;;;;;5030259;28;19916;-85
2021/01/16 05:16:40;;;;;;;;;;;2.90;91.30;;;;;;5034325;28;19909;-85
2021/01/16 05:19:08;;;;;;;;;;;2.90;91.10;;;;;;5033878;28;19908;-85
2021/01/16 05:21:35;;;;;;;;;;;2.90;91.30;;;;;;5051621;28;19908;-85
2021/01/16 05:24:04;;;;;;;;;;;2.90;90.80;;;;;;5034232;28;19956;-85
2021/01/16 05:26:31;;;;;;;;;;;2.80;91.10;;;;;;5052846;28;19962;-85
2021/01/16 05:28:59;;;;;;;;;;;2.80;91.00;;;;;;5054040;28;19913;-85
2021/01/16 05:31:24;;;;;;;;;;;2.80;90.70;;;;;;5038061;28;19909;-85
2021/01/16 05:33:50;;;;;;;;;;;2.70;90.50;;;;;;5037459;28;20421;-85
2021/01/16 05:36:16;;;;;;;;;;;2.70;90.60;;;;;;5037309;28;19920;-85
2021/01/16 05:38:42;;;;;;;;;;;2.70;90.70;;;;;;5037477;28;19917;-85
2021/01/16 05:41:10;;;;;;;;;;;2.70;90.70;;;;;;5021155;28;20259;-85
2021/01/16 05:43:36;;;;;;;;;;;2.70;90.60;;;;;;5055405;28;19962;-85
2021/01/16 05:46:04;;;;;;;;;;;2.70;90.60;;;;;;5025336;28;19913;-85
2021/01/16 05:48:30;;;;;;;;;;;2.70;90.80;;;;;;5034911;28;19920;-84
2021/01/16 05:50:56;;;;;;;;;;;2.70;90.90;;;;;;5037143;28;20294;-85
2021/01/16 05:53:24;;;;;;;;;;;2.70;90.90;;;;;;5037473;28;19915;-84
2021/01/16 05:55:49;;;;;;;;;;;2.70;90.90;;;;;;5037158;28;20284;-85
2021/01/16 05:58:17;;;;;;;;;;;2.70;90.70;;;;;;5055210;28;19999;-85
2021/01/16 06:00:46;;;;;;;;;;;2.70;90.70;;;;;;5036747;28;19963;-84
2021/01/16 06:03:13;;;;;;;;;;;2.70;90.90;;;;;;5037008;28;19920;-85
2021/01/16 06:05:45;;;;;;;;;;;2.70;91.00;;;;;;5033737;28;19916;-87
2021/01/16 06:08:11;;;;;;;;;;;2.70;90.80;;;;;;5033651;28;19916;-85
2021/01/16 06:10:37;;;;;;;;;;;2.80;90.90;;;;;;5017416;28;20260;-84
2021/01/16 06:13:16;;;;;;;;;;;2.70;90.60;;;;;;5036569;28;20278;-85
2021/01/16 06:15:42;;;;;;;;;;;2.70;90.70;;;;;;5031165;28;19913;-85
2021/01/16 06:18:11;;;;;;;;;;;2.70;90.50;;;;;;5000964;28;19917;-85
2021/01/16 06:20:38;;;;;;;;;;;2.60;90.20;;;;;;5028628;28;19920;-84
2021/01/16 06:23:10;;;;;;;;;;;2.60;90.50;;;;;;5052141;28;19910;-85
2021/01/16 06:25:37;;;;;;;;;;;2.60;90.20;;;;;;5054767;28;19908;-86
2021/01/16 06:28:03;;;;;;;;;;;2.60;90.50;;;;;;5029000;28;20008;-85
2021/01/16 06:30:32;;;;;;;;;;;2.60;90.40;;;;;;5013011;28;19913;-85
2021/01/16 06:32:58;;;;;;;;;;;2.60;90.40;;;;;;5022645;28;20347;-84
2021/01/16 06:35:28;;;;;;;;;;;2.60;90.50;;;;;;5054479;28;19970;-85
2021/01/16 06:37:54;;;;;;;;;;;2.60;90.50;;;;;;5054257;28;19995;-85
2021/01/16 06:40:30;;;;;;;;;;;2.50;90.50;;;;;;5014228;28;20060;-85
2021/01/16 06:42:56;;;;;;;;;;;2.50;90.60;;;;;;5035981;28;19913;-85
2021/01/16 06:45:23;;;;;;;;;;;2.50;90.60;;;;;;5046421;28;19917;-84
2021/01/16 06:47:53;;;;;;;;;;;2.50;90.70;;;;;;5000541;28;19944;-85
2021/01/16 06:50:19;;;;;;;;;;;2.50;90.50;;;;;;5036831;28;19915;-84
2021/01/16 06:52:44;;;;;;;;;;;2.50;90.70;;;;;;5054653;28;19995;-85
2021/01/16 06:55:15;;;;;;;;;;;2.50;90.60;;;;;;5031142;28;19917;-85
2021/01/16 06:57:41;;;;;;;;;;;2.50;90.70;;;;;;5027857;28;19915;-84
2021/01/16 07:00:07;;;;;;;;;;;2.50;90.60;;;;;;5035838;28;19921;-84
2021/01/16 07:02:33;;;;;;;;;;;2.50;90.60;;;;;;5026846;28;20283;-84
2021/01/16 07:05:00;;;;;;;;;;;2.50;90.70;;;;;;5031365;28;19924;-85
2021/01/16 07:07:27;;;;;;;;;;;2.60;90.60;;;;;;5053970;28;19917;-84
2021/01/16 07:09:55;;;;;;;;;;;2.60;90.90;;;;;;5053418;28;19962;-85
2021/01/16 07:12:20;;;;;;;;;;;2.70;90.90;;;;;;5034205;28;19931;-84
2021/01/16 07:14:47;;;;;;;;;;;2.70;90.90;;;;;;5012014;28;20007;-85
2021/01/16 07:17:13;;;;;;;;;;;2.60;90.50;;;;;;5019108;28;19956;-85
2021/01/16 07:19:42;;;;;;;;;;;2.60;90.80;;;;;;5036742;28;19909;-85
2021/01/16 07:22:07;;;;;;;;;;;2.60;90.30;;;;;;5025699;28;19952;-84
2021/01/16 07:24:33;;;;;;;;;;;2.60;90.20;;;;;;5015843;28;19944;-85
2021/01/16 07:27:00;;;;;;;;;;;2.60;90.40;;;;;;5036540;28;20370;-84
2021/01/16 07:29:26;;;;;;;;;;;2.60;90.20;;;;;;5038987;28;19917;-84
2021/01/16 07:31:52;;;;;;;;;;;2.50;90.40;;;;;;5011693;28;20299;-83
2021/01/16 07:34:17;;;;;;;;;;;2.60;90.40;;;;;;5034511;28;20388;-85
2021/01/16 07:36:43;;;;;;;;;;;2.60;90.30;;;;;;5032030;28;19920;-84
2021/01/16 07:39:10;;;;;;;;;;;2.50;90.30;;;;;;5051714;28;20398;-85
2021/01/16 07:41:36;;;;;;;;;;;2.50;90.40;;;;;;5027189;28;19941;-84
2021/01/16 07:44:01;;;;;;;;;;;2.60;90.40;;;;;;5018755;28;20442;-86
2021/01/16 07:46:29;;;;;;;;;;;2.50;90.10;;;;;;5035860;28;20397;-85
2021/01/16 07:48:58;;;;;;;;;;;2.50;90.20;;;;;;5028756;28;19921;-85
2021/01/16 07:51:32;;;;;;;;;;;2.50;90.20;;;;;;5028732;28;19916;-84
2021/01/16 07:54:05;;;;;;;;;;;2.50;90.20;;;;;;5017960;28;19920;-84
2021/01/16 07:56:43;;;;;;;;;;;2.50;90.30;;;;;;5034108;28;20286;-84
2021/01/16 07:59:20;;;;;;;;;;;2.50;90.30;;;;;;5030154;28;19916;-84
2021/01/16 08:01:59;;;;;;;;;;;2.50;90.30;;;;;;5035166;28;20394;-85
2021/01/16 08:04:25;;;;;;;;;;;2.50;90.10;;;;;;5028888;28;19928;-84
2021/01/16 08:07:04;;;;;;;;;;;2.50;90.40;;;;;;5034849;28;19925;-85
2021/01/16 08:09:48;;;;;;;;;;;2.50;90.30;;;;;;5034668;28;19932;-85
2021/01/16 08:12:14;;;;;;;;;;;2.50;90.10;;;;;;5017667;28;20446;-84
2021/01/16 08:14:41;;;;;;;;;;;2.60;90.40;;;;;;5028472;28;20369;-85
2021/01/16 08:17:11;;;;;;;;;;;2.60;90.40;;;;;;5026479;28;19909;-84
2021/01/16 08:19:47;;;;;;;;;;;2.60;90.40;;;;;;5035482;28;19966;-84
2021/01/16 08:22:17;;;;;;;;;;;2.60;90.50;;;;;;5039166;28;20355;-85
2021/01/16 08:24:55;;;;;;;;;;;2.60;89.80;;;;;;5027378;28;19952;-85
2021/01/16 08:27:22;;;;;;;;;;;2.50;89.80;;;;;;5034383;28;19973;-85
2021/01/16 08:29:48;;;;;;;;;;;2.50;90.10;;;;;;5032711;28;19913;-85
2021/01/16 08:32:13;;;;;;;;;;;2.50;90.00;;;;;;5017522;28;20268;-86
2021/01/16 08:35:05;;;;;;;;;;;2.50;89.90;;;;;;5049159;28;19925;-86
2021/01/16 08:37:40;;;;;;;;;;;2.50;89.80;;;;;;5046245;28;19940;-85
2021/01/16 08:40:11;;;;;;;;;;;2.50;90.00;;;;;;5029534;28;19920;-85
2021/01/16 08:42:57;;;;;;;;;;;2.50;90.20;;;;;;5044424;28;20039;-85
2021/01/16 08:45:23;;;;;;;;;;;2.60;90.20;;;;;;5047461;28;20382;-85
2021/01/16 08:47:53;;;;;;;;;;;2.60;90.30;;;;;;5033335;28;19970;-86
2021/01/16 08:50:19;;;;;;;;;;;2.60;90.40;;;;;;5033789;28;19999;-85
2021/01/16 08:52:45;;;;;;;;;;;2.60;89.70;;;;;;5036387;28;20450;-85
2021/01/16 08:55:11;;;;;;;;;;;2.60;89.50;;;;;;5039697;28;19909;-85
2021/01/16 08:57:37;;;;;;;;;;;2.60;89.90;;;;;;5027658;28;20383;-86
2021/01/16 09:00:35;;;;;;;;;;;2.60;90.10;;;;;;5034269;28;19921;-85
2021/01/16 09:03:05;;;;;;;;;;;2.60;90.10;;;;;;4972603;28;19928;-86
2021/01/16 09:05:32;;;;;;;;;;;2.60;90.10;;;;;;5035191;28;20002;-85
2021/01/16 09:07:58;;;;;;;;;;;2.60;89.60;;;;;;5034826;28;19921;-85
2021/01/16 09:10:24;;;;;;;;;;;2.70;90.10;;;;;;5013365;28;20430;-85
2021/01/16 09:12:50;;;;;;;;;;;2.70;89.90;;;;;;5049383;28;19909;-86
2021/01/16 09:15:19;;;;;;;;;;;2.70;89.30;;;;;;5037234;28;19913;-85
2021/01/16 09:18:00;;;;;;;;;;;2.60;89.30;;;;;;5030146;28;19978;-86
2021/01/16 09:20:26;;;;;;;;;;;2.60;88.70;;;;;;5032191;28;19951;-85
2021/01/16 09:22:51;;;;;;;;;;;2.60;88.90;;;;;;5026709;28;20970;-86
2021/01/16 09:25:20;;;;;;;;;;;2.60;89.10;;;;;;5022198;28;19917;-85
2021/01/16 09:27:46;;;;;;;;;;;2.60;89.40;;;;;;5037653;28;20050;-86
2021/01/16 09:30:18;;;;;;;;;;;2.60;89.70;;;;;;5022108;28;20004;-85
2021/01/16 09:32:44;;;;;;;;;;;2.60;89.00;;;;;;5045022;28;19928;-85
2021/01/16 09:35:09;;;;;;;;;;;2.60;88.70;;;;;;5031946;28;19917;-85
2021/01/16 09:37:35;;;;;;;;;;;2.60;88.80;;;;;;5052370;28;20377;-85
2021/01/16 09:40:06;;;;;;;;;;;2.60;89.10;;;;;;5010245;28;20306;-85
2021/01/16 09:42:40;;;;;;;;;;;2.60;88.30;;;;;;5036679;28;19909;-86
2021/01/16 09:45:06;;;;;;;;;;;2.60;89.00;;;;;;5034493;28;20050;-85
2021/01/16 09:47:31;;;;;;;;;;;2.60;88.30;;;;;;5020428;28;20434;-85
2021/01/16 09:49:57;;;;;;;;;;;2.60;88.90;;;;;;5040716;28;20000;-86
2021/01/16 09:52:22;;;;;;;;;;;2.60;87.90;;;;;;5024354;28;20011;-84
2021/01/16 09:54:50;;;;;;;;;;;2.60;87.60;;;;;;5024125;28;19917;-87
2021/01/16 09:57:34;;;;;;;;;;;2.60;88.60;;;;;;5043665;28;20008;-88
2021/01/16 10:00:10;;;;;;;;;;;2.60;88.40;;;;;;5025206;28;19955;-86
2021/01/16 10:02:38;;;;;;;;;;;2.60;88.00;;;;;;5036140;28;19924;-84
2021/01/16 10:05:07;;;;;;;;;;;2.60;88.00;;;;;;5019831;28;20206;-86
2021/01/16 10:07:38;;;;;;;;;;;2.60;87.80;;;;;;5033822;28;20298;-85
2021/01/16 10:10:11;;;;;;;;;;;2.60;88.30;;;;;;5028375;28;19956;-86
2021/01/16 10:12:40;;;;;;;;;;;2.70;88.50;;;;;;5034432;28;19963;-87
2021/01/16 10:15:06;;;;;;;;;;;2.70;86.80;;;;;;5025987;28;19913;-86
2021/01/16 10:17:32;;;;;;;;;;;2.70;86.90;;;;;;5030412;28;19909;-85
2021/01/16 10:20:27;;;;;;;;;;;2.70;87.10;;;;;;5053669;28;20274;-85
2021/01/16 10:22:54;;;;;;;;;;;2.70;86.80;;;;;;5011400;28;19909;-85
2021/01/16 10:25:20;;;;;;;;;;;2.70;87.10;;;;;;5037719;28;19915;-85
2021/01/16 10:27:47;;;;;;;;;;;2.70;86.70;;;;;;5033694;28;19982;-85
2021/01/16 10:30:17;;;;;;;;;;;2.70;86.50;;;;;;5042231;28;19919;-85
2021/01/16 10:32:42;;;;;;;;;;;2.70;86.70;;;;;;5050741;28;20348;-85
2021/01/16 10:35:08;;;;;;;;;;;2.70;85.70;;;;;;5014698;28;19914;-85
2021/01/16 10:37:40;;;;;;;;;;;2.70;85.10;;;;;;5044603;28;20375;-85
2021/01/16 10:40:06;;;;;;;;;;;2.70;86.30;;;;;;5044475;28;19999;-86
2021/01/16 10:42:45;;;;;;;;;;;2.70;86.10;;;;;;5048846;28;20356;-85
2021/01/16 10:45:11;;;;;;;;;;;2.80;85.80;;;;;;5048206;28;19913;-86
2021/01/16 10:47:38;;;;;;;;;;;2.80;86.20;;;;;;5028560;28;19924;-86
2021/01/16 10:50:09;;;;;;;;;;;2.80;85.20;;;;;;5047631;28;19963;-87
2021/01/16 10:52:35;;;;;;;;;;;2.80;84.90;;;;;;5044109;28;19913;-86
2021/01/16 10:55:02;;;;;;;;;;;2.80;84.90;;;;;;5027895;28;19909;-86
2021/01/16 10:57:39;;;;;;;;;;;2.70;84.70;;;;;;5034965;28;19912;-86
2021/01/16 11:00:11;;;;;;;;;;;2.80;84.20;;;;;;5029862;28;19919;-86
2021/01/16 11:02:37;;;;;;;;;;;2.80;84.00;;;;;;5031423;28;19909;-85
2021/01/16 11:05:15;;;;;;;;;;;2.80;84.00;;;;;;5036245;28;19939;-85
2021/01/16 11:07:41;;;;;;;;;;;2.80;83.50;;;;;;5053278;28;19923;-86
2021/01/16 11:10:07;;;;;;;;;;;2.80;83.40;;;;;;5028298;28;20382;-86
2021/01/16 11:12:33;;;;;;;;;;;2.80;83.40;;;;;;5040842;28;20389;-85
2021/01/16 11:15:01;;;;;;;;;;;2.80;82.80;;;;;;5015809;28;19913;-85
2021/01/16 11:17:44;;;;;;;;;;;2.80;83.20;;;;;;5041770;28;19927;-85
2021/01/16 11:20:17;;;;;;;;;;;2.90;83.10;;;;;;5032068;28;19908;-85
2021/01/16 11:22:45;;;;;;;;;;;2.90;83.60;;;;;;5050004;28;20329;-86
2021/01/16 11:25:12;;;;;;;;;;;2.90;81.20;;;;;;5037640;28;20278;-85
2021/01/16 11:27:48;;;;;;;;;;;2.90;81.90;;;;;;5022648;28;19925;-85
2021/01/16 11:30:16;;;;;;;;;;;2.80;81.70;;;;;;5039873;28;19917;-86
2021/01/16 11:32:41;;;;;;;;;;;2.80;81.40;;;;;;5044459;28;19917;-86
2021/01/16 11:35:14;;;;;;;;;;;2.80;81.20;;;;;;5014986;28;20298;-86
2021/01/16 11:37:56;;;;;;;;;;;2.80;81.00;;;;;;5036498;28;19917;-85
2021/01/16 11:40:26;;;;;;;;;;;2.80;80.30;;;;;;5031338;28;19913;-85
2021/01/16 11:42:53;;;;;;;;;;;2.80;80.70;;;;;;5031152;28;19991;-85
2021/01/16 11:45:19;;;;;;;;;;;2.80;81.30;;;;;;5049389;28;19921;-85
2021/01/16 11:47:55;;;;;;;;;;;2.80;82.20;;;;;;5040488;28;19913;-85
2021/01/16 11:50:21;;;;;;;;;;;2.90;81.90;;;;;;5032069;28;19971;-85
2021/01/16 11:52:47;;;;;;;;;;;2.90;82.40;;;;;;5033282;28;19909;-85
2021/01/16 11:55:13;;;;;;;;;;;2.90;81.60;;;;;;5032838;28;20428;-86
2021/01/16 11:57:40;;;;;;;;;;;2.90;81.50;;;;;;5017962;28;19921;-86
2021/01/16 12:00:06;;;;;;;;;;;3.00;82.60;;;;;;5032516;28;20278;-86
2021/01/16 12:02:32;;;;;;;;;;;2.90;82.20;;;;;;5025620;28;20012;-85
2021/01/16 12:04:58;;;;;;;;;;;2.90;81.60;;;;;;5034297;28;19931;-85
2021/01/16 12:07:24;;;;;;;;;;;2.90;81.80;;;;;;5051974;28;19913;-86
2021/01/16 12:09:50;;;;;;;;;;;2.90;81.60;;;;;;5027487;28;19919;-85
2021/01/16 12:12:15;;;;;;;;;;;2.90;82.40;;;;;;5035999;28;19909;-87
2021/01/16 12:14:41;;;;;;;;;;;2.90;81.30;;;;;;5016735;28;19913;-85
2021/01/16 12:17:13;;;;;;;;;;;3.00;82.20;;;;;;5052298;28;19909;-86
2021/01/16 12:19:39;;;;;;;;;;;3.00;81.80;;;;;;5050548;28;19909;-85
2021/01/16 12:22:06;;;;;;;;;;;3.00;81.40;;;;;;5017535;28;19950;-85
2021/01/16 12:24:32;;;;;;;;;;;3.00;82.40;;;;;;5042181;28;19913;-84
2021/01/16 12:27:07;;;;;;;;;;;2.90;81.30;;;;;;5029711;28;19954;-85
2021/01/16 12:29:44;;;;;;;;;;;3.00;82.20;;;;;;5030787;28;19917;-86
2021/01/16 12:32:10;;;;;;;;;;;3.00;81.40;;;;;;5050509;28;20363;-84
2021/01/16 12:34:54;;;;;;;;;;;2.90;80.70;;;;;;5007170;28;19920;-85
2021/01/16 12:37:24;;;;;;;;;;;2.90;82.20;;;;;;5013820;28;19913;-84
2021/01/16 12:39:50;;;;;;;;;;;3.00;81.60;;;;;;5044024;28;20382;-86
2021/01/16 12:42:16;;;;;;;;;;;2.90;80.30;;;;;;5034268;28;19958;-85
2021/01/16 12:44:41;;;;;;;;;;;3.00;81.10;;;;;;5034514;28;20002;-86
2021/01/16 12:47:09;;;;;;;;;;;3.00;80.60;;;;;;5022899;28;19920;-85
2021/01/16 12:49:34;;;;;;;;;;;2.90;80.80;;;;;;5031394;28;20357;-85
2021/01/16 12:52:00;;;;;;;;;;;3.00;81.30;;;;;;5039068;28;19947;-85
2021/01/16 12:54:26;;;;;;;;;;;2.90;80.10;;;;;;5015547;28;19952;-86
2021/01/16 12:56:51;;;;;;;;;;;2.90;79.70;;;;;;5007792;28;19920;-84
2021/01/16 12:59:18;;;;;;;;;;;2.80;80.00;;;;;;5024893;28;19917;-86
2021/01/16 13:01:46;;;;;;;;;;;2.80;79.90;;;;;;5034125;28;19916;-85
2021/01/16 13:04:13;;;;;;;;;;;2.90;79.10;;;;;;5052119;28;19928;-84
2021/01/16 13:06:39;;;;;;;;;;;2.80;78.80;;;;;;5049390;28;19912;-86
2021/01/16 13:09:06;;;;;;;;;;;2.90;78.90;;;;;;5014454;28;20310;-86
2021/01/16 13:11:32;;;;;;;;;;;2.90;79.60;;;;;;5014720;28;19910;-84
2021/01/16 13:13:59;;;;;;;;;;;3.00;79.30;;;;;;5021176;28;20281;-85
2021/01/16 13:16:42;;;;;;;;;;;2.90;78.00;;;;;;5033303;28;20353;-84
2021/01/16 13:19:08;;;;;;;;;;;2.80;77.20;;;;;;5038801;28;20393;-83
2021/01/16 13:21:34;;;;;;;;;;;2.80;77.20;;;;;;5052026;28;19915;-84
2021/01/16 13:24:00;;;;;;;;;;;2.80;76.80;;;;;;5048168;28;20283;-85
2021/01/16 13:26:25;;;;;;;;;;;2.80;77.70;;;;;;5031582;28;19917;-84
2021/01/16 13:28:53;;;;;;;;;;;2.70;78.10;;;;;;5016733;28;20374;-83
2021/01/16 13:31:22;;;;;;;;;;;2.80;78.50;;;;;;5027678;28;19923;-85
2021/01/16 13:33:51;;;;;;;;;;;2.80;77.90;;;;;;5012937;28;19925;-86
2021/01/16 13:36:18;;;;;;;;;;;2.70;77.80;;;;;;5046172;28;20374;-87
2021/01/16 13:38:44;;;;;;;;;;;2.60;77.60;;;;;;5029271;28;19908;-84
2021/01/16 13:41:10;;;;;;;;;;;2.50;78.10;;;;;;5013167;28;19928;-84
2021/01/16 13:43:40;;;;;;;;;;;2.60;78.50;;;;;;5032085;28;19909;-84
2021/01/16 13:46:06;;;;;;;;;;;2.60;78.50;;;;;;5025161;28;19920;-84
2021/01/16 13:48:47;;;;;;;;;;;2.70;77.60;;;;;;5040396;28;19917;-84
2021/01/16 13:51:19;;;;;;;;;;;2.60;77.90;;;;;;5033879;28;19920;-84
2021/01/16 13:53:52;;;;;;;;;;;2.60;79.30;;;;;;5037434;28;20424;-84
2021/01/16 13:56:19;;;;;;;;;;;2.60;79.10;;;;;;5020967;28;19970;-85
2021/01/16 13:58:44;;;;;;;;;;;2.60;78.40;;;;;;5032565;28;19917;-84
2021/01/16 14:01:10;;;;;;;;;;;2.60;77.40;;;;;;5035218;28;19912;-84
2021/01/16 14:03:36;;;;;;;;;;;2.50;79.00;;;;;;5019279;28;20606;-84
2021/01/16 14:06:02;;;;;;;;;;;2.60;78.20;;;;;;5016877;28;19948;-85
2021/01/16 14:08:29;;;;;;;;;;;2.50;78.00;;;;;;5043842;28;19928;-85
2021/01/16 14:10:59;;;;;;;;;;;2.50;78.80;;;;;;5036245;28;19920;-85
2021/01/16 14:13:24;;;;;;;;;;;2.50;78.00;;;;;;5033200;28;19912;-85
2021/01/16 14:15:54;;;;;;;;;;;2.50;77.70;;;;;;5033626;28;20323;-83
2021/01/16 14:18:27;;;;;;;;;;;2.50;77.70;;;;;;5022169;28;20374;-80
2021/01/16 14:20:52;;;;;;;;;;;2.40;77.90;;;;;;5053800;28;19913;-84
2021/01/16 14:23:28;;;;;;;;;;;2.40;76.50;;;;;;5018644;28;20335;-87
2021/01/16 14:25:53;;;;;;;;;;;2.40;77.30;;;;;;5046298;28;19966;-84
2021/01/16 14:28:26;;;;;;;;;;;2.30;77.10;;;;;;5030357;28;20012;-83
2021/01/16 14:30:51;;;;;;;;;;;2.30;76.90;;;;;;5034883;28;20050;-84
2021/01/16 14:33:17;;;;;;;;;;;2.40;76.60;;;;;;5030157;28;20011;-83
2021/01/16 14:35:43;;;;;;;;;;;2.30;76.30;;;;;;5020228;28;19951;-83